Аэропорт: Курск-Восточный . Курск

ICAO: UUOK

METAR:
2021-07-28 14:00:00
UUOK 281400Z 14003MPS CAVOK 24/17 Q1014 R30/CLRD65 NOSIG RMK QFE741/0989
METAR:
Информация по данной станции не доступна